Time;durP1;ratioP1;P1;durP2;ratioP2;P2;SDS_P1;SDS_P2;PMS_P1;PMS_P2;Temp;Humidity;BMP_temperature;BMP_pressure;BME280_temperature;BME280_humidity;BME280_pressure;Samples;Min_cycle;Max_cycle;Signal;HPM_P1;HPM_P2
2021/10/16 00:03:01;;;;;;;8.17;6.67;;;;;;;;;;5021557;28;20189;-89
2021/10/16 00:10:13;;;;;;;7.80;5.10;;;;;;;;;;5020785;28;20229;-89
2021/10/16 00:14:55;;;;;;;9.23;5.73;;;;;;;;;;5034770;28;20535;-90
2021/10/16 00:18:52;;;;;;;10.03;6.23;;;;;;;;;;4933978;29;20738;-90
2021/10/16 00:31:46;;;;;;;6.43;5.40;;;;;;;;;;5011567;28;20217;-90
2021/10/16 00:36:05;;;;;;;7.43;5.93;;;;;;;;;;5013365;28;20194;-89
2021/10/16 00:53:18;;;;;;;10.37;6.30;;;;;;;;;;4917083;28;20725;-89
2021/10/16 00:57:31;;;;;;;9.03;6.30;;;;;;;;;;4951880;29;20196;-90
2021/10/16 01:00:56;;;;;;;9.17;6.67;;;;;;;;;;4923668;29;20707;-89
2021/10/16 01:04:56;;;;;;;10.10;6.73;;;;;;;;;;4977058;28;20210;-89
2021/10/16 01:15:16;;;;;;;7.60;6.40;;;;;;;;;;5014375;28;20580;-89
2021/10/16 01:18:46;;;;;;;11.03;6.23;;;;;;;;;;4998111;28;20348;-89
2021/10/16 01:32:15;;;;;;;10.47;7.00;;;;;;;;;;4974928;28;20223;-89
2021/10/16 01:41:09;;;;;;;8.33;6.73;;;;;;;;;;5035296;28;20639;-89
2021/10/16 01:45:14;;;;;;;7.80;6.40;;;;;;;;;;4951873;29;20203;-89
2021/10/16 01:50:41;;;;;;;;;;;;;;;;;;;;;
2021/10/16 01:55:29;;;;;;;;;;;;;;;;;;;;;
2021/10/16 01:59:59;;;;;;;;;;;;;;;;;;;;;
2021/10/16 02:09:38;;;;;;;;;;;;;;;;;;;;;
2021/10/16 02:14:20;;;;;;;9.27;6.07;;;;;;;;;;4928261;29;20228;-89
2021/10/16 02:23:50;;;;;;;9.17;6.03;;;;;;;;;;4941901;29;20663;-89
2021/10/16 02:41:10;;;;;;;9.23;6.40;;;;;;;;;;5034125;28;20220;-89
2021/10/16 02:46:03;;;;;;;;;;;;;;;;;;;;;
2021/10/16 03:11:44;;;;;;;;;;;;;;;;;;;;;
2021/10/16 03:16:24;;;;;;;9.83;7.47;;;;;;;;;;4924706;29;20204;-89
2021/10/16 03:20:47;;;;;;;11.20;7.10;;;;;;;;;;4910039;29;20231;-89
2021/10/16 03:24:39;;;;;;;9.17;6.93;;;;;;;;;;4923101;29;20203;-89
2021/10/16 03:29:12;;;;;;;;;;;;;;;;;;;;;
2021/10/16 03:33:27;;;;;;;11.00;7.80;;;;;;;;;;4900238;29;20232;-89
2021/10/16 04:10:37;;;;;;;11.60;8.67;;;;;;;;;;5050492;28;20216;-89
2021/10/16 04:20:13;;;;;;;13.03;6.50;;;;;;;;;;5056877;28;20219;-90
2021/10/16 04:23:57;;;;;;;;;;;;;;;;;;;;;
2021/10/16 04:28:48;;;;;;;;;;;;;;;;;;;;;
2021/10/16 04:33:25;;;;;;;8.67;6.03;;;;;;;;;;5020308;28;20573;-89
2021/10/16 04:41:20;;;;;;;;;;;;;;;;;;;;;
2021/10/16 04:45:28;;;;;;;11.40;7.67;;;;;;;;;;5016135;28;20189;-89
2021/10/16 04:49:11;;;;;;;9.77;7.20;;;;;;;;;;4992293;28;20205;-89
2021/10/16 04:52:50;;;;;;;8.97;6.93;;;;;;;;;;4986848;28;20214;-89
2021/10/16 04:56:21;;;;;;;9.17;6.73;;;;;;;;;;4975558;28;20195;-89
2021/10/16 04:59:45;;;;;;;9.80;7.33;;;;;;;;;;4988322;28;20222;-90
2021/10/16 05:02:50;;;;;;;8.50;6.93;;;;;;;;;;4974335;28;20178;-90
2021/10/16 05:05:58;;;;;;;8.50;7.20;;;;;;;;;;4985494;28;20190;-89
2021/10/16 05:09:34;;;;;;;10.37;7.30;;;;;;;;;;4996104;23;20190;-73
2021/10/16 05:12:39;;;;;;;13.27;9.60;;;;;;;;;;4984205;28;20241;-72
2021/10/16 05:15:43;;;;;;;11.87;9.17;;;;;;;;;;4984402;28;20202;-72
2021/10/16 05:18:51;;;;;;;14.23;11.33;;;;;;;;;;4984435;28;20197;-72
2021/10/16 05:21:55;;;;;;;13.30;11.67;;;;;;;;;;4984309;28;20226;-72
2021/10/16 05:24:59;;;;;;;14.13;10.50;;;;;;;;;;4984125;28;20186;-72
2021/10/16 05:28:04;;;;;;;13.63;10.10;;;;;;;;;;4983967;28;20197;-72
2021/10/16 05:31:09;;;;;;;14.27;10.00;;;;;;;;;;4983951;28;20225;-72
2021/10/16 05:34:13;;;;;;;14.07;10.13;;;;;;;;;;4983842;28;20210;-72
2021/10/16 05:37:17;;;;;;;13.90;9.43;;;;;;;;;;4984118;28;20182;-72
2021/10/16 05:40:22;;;;;;;14.00;10.43;;;;;;;;;;4983982;28;20186;-72
2021/10/16 05:43:26;;;;;;;15.47;9.90;;;;;;;;;;4973241;28;20186;-72
2021/10/16 05:46:36;;;;;;;13.03;8.93;;;;;;;;;;4983713;28;20186;-72
2021/10/16 05:49:41;;;;;;;11.53;8.93;;;;;;;;;;4983826;28;20641;-72
2021/10/16 05:52:48;;;;;;;12.40;9.03;;;;;;;;;;4973000;28;20206;-72
2021/10/16 05:55:52;;;;;;;14.00;10.67;;;;;;;;;;4972773;28;20194;-72
2021/10/16 05:58:58;;;;;;;18.10;10.07;;;;;;;;;;4972456;28;20186;-72
2021/10/16 06:02:03;;;;;;;13.93;9.63;;;;;;;;;;4983403;28;20700;-72
2021/10/16 06:05:07;;;;;;;15.43;9.30;;;;;;;;;;4994796;28;20182;-72
2021/10/16 06:08:12;;;;;;;16.47;9.57;;;;;;;;;;4983711;28;20522;-72
2021/10/16 06:11:16;;;;;;;16.30;9.80;;;;;;;;;;4983032;28;20221;-72
2021/10/16 06:14:20;;;;;;;12.53;9.50;;;;;;;;;;4983837;28;20222;-72
2021/10/16 06:17:26;;;;;;;12.93;8.93;;;;;;;;;;4983092;28;20202;-72
2021/10/16 06:20:30;;;;;;;14.33;9.30;;;;;;;;;;4982961;28;20641;-72
2021/10/16 06:23:36;;;;;;;14.13;9.10;;;;;;;;;;4983330;28;20186;-72
2021/10/16 06:26:40;;;;;;;13.50;8.70;;;;;;;;;;4993962;28;20193;-72
2021/10/16 06:29:44;;;;;;;11.27;8.93;;;;;;;;;;4993927;28;20206;-72
2021/10/16 06:32:49;;;;;;;12.60;8.40;;;;;;;;;;4971987;28;20186;-72
2021/10/16 06:35:53;;;;;;;11.83;8.87;;;;;;;;;;4983212;28;20186;-72
2021/10/16 06:39:14;;;;;;;11.73;8.53;;;;;;;;;;4982680;28;20186;-72
2021/10/16 06:42:27;;;;;;;15.10;10.27;;;;;;;;;;4982594;28;20218;-72
2021/10/16 06:45:49;;;;;;;19.07;12.03;;;;;;;;;;4985466;28;20195;-72
2021/10/16 06:48:57;;;;;;;18.20;12.80;;;;;;;;;;4982496;28;20198;-72
2021/10/16 06:52:05;;;;;;;21.23;14.20;;;;;;;;;;4982459;28;20217;-72
2021/10/16 06:55:09;;;;;;;20.83;15.30;;;;;;;;;;4994669;28;20178;-72
2021/10/16 06:58:13;;;;;;;24.40;17.13;;;;;;;;;;4982295;28;20205;-72
2021/10/16 07:01:17;;;;;;;24.17;15.70;;;;;;;;;;4982300;28;20222;-72
2021/10/16 07:04:28;;;;;;;22.17;12.50;;;;;;;;;;4982432;28;20210;-72
2021/10/16 07:07:36;;;;;;;18.60;10.77;;;;;;;;;;4982269;28;20190;-70
2021/10/16 07:10:59;;;;;;;12.50;9.60;;;;;;;;;;4976581;28;20230;-70
2021/10/16 07:14:03;;;;;;;11.67;8.93;;;;;;;;;;4994629;28;20179;-70
2021/10/16 07:17:07;;;;;;;11.73;9.53;;;;;;;;;;4982350;28;20190;-70
2021/10/16 07:20:11;;;;;;;13.60;8.70;;;;;;;;;;4994222;28;20186;-70
2021/10/16 07:23:20;;;;;;;10.60;8.83;;;;;;;;;;4994021;28;20218;-70
2021/10/16 07:26:24;;;;;;;11.00;7.53;;;;;;;;;;4993891;28;20178;-70
2021/10/16 07:29:28;;;;;;;9.70;7.57;;;;;;;;;;4982388;28;20182;-70
2021/10/16 07:32:32;;;;;;;10.63;7.70;;;;;;;;;;4994020;28;20225;-70
2021/10/16 07:35:36;;;;;;;13.30;7.90;;;;;;;;;;4994352;28;20182;-70
2021/10/16 07:38:40;;;;;;;11.03;7.70;;;;;;;;;;4994223;28;20182;-70
2021/10/16 07:41:46;;;;;;;12.80;7.53;;;;;;;;;;4981796;28;20222;-70
2021/10/16 07:44:50;;;;;;;13.07;7.73;;;;;;;;;;4977975;28;20226;-70
2021/10/16 07:47:55;;;;;;;10.97;7.57;;;;;;;;;;4990313;28;20179;-70
2021/10/16 07:51:00;;;;;;;9.53;6.77;;;;;;;;;;4994033;28;20221;-70
2021/10/16 07:54:04;;;;;;;7.93;6.77;;;;;;;;;;4982150;28;20635;-70
2021/10/16 07:57:08;;;;;;;7.27;6.00;;;;;;;;;;4993559;28;20190;-70
2021/10/16 08:00:12;;;;;;;8.43;6.50;;;;;;;;;;4993986;28;20193;-70
2021/10/16 08:03:17;;;;;;;10.33;5.87;;;;;;;;;;4981704;28;20542;-70
2021/10/16 08:06:21;;;;;;;9.47;6.07;;;;;;;;;;4993838;28;20210;-70
2021/10/16 08:09:25;;;;;;;10.30;5.67;;;;;;;;;;4981470;28;20228;-70
2021/10/16 08:12:32;;;;;;;9.93;5.83;;;;;;;;;;4970940;28;20668;-70
2021/10/16 08:15:36;;;;;;;9.67;5.83;;;;;;;;;;4993579;28;20202;-70
2021/10/16 08:18:41;;;;;;;13.57;6.40;;;;;;;;;;4993693;28;20194;-70
2021/10/16 08:21:45;;;;;;;13.07;6.50;;;;;;;;;;4993265;28;20217;-70
2021/10/16 08:24:49;;;;;;;7.80;5.80;;;;;;;;;;4993394;28;20218;-70
2021/10/16 08:27:53;;;;;;;6.60;5.40;;;;;;;;;;4993404;28;20186;-70
2021/10/16 08:31:00;;;;;;;11.30;8.43;;;;;;;;;;4993192;28;20720;-70
2021/10/16 08:34:04;;;;;;;10.77;6.80;;;;;;;;;;4993217;28;20194;-70
2021/10/16 08:37:07;;;;;;;9.83;6.90;;;;;;;;;;4993191;28;20190;-70
2021/10/16 08:40:12;;;;;;;7.00;5.93;;;;;;;;;;4993247;28;20183;-70
2021/10/16 08:43:17;;;;;;;9.70;5.40;;;;;;;;;;4993140;28;20680;-70
2021/10/16 08:46:23;;;;;;;9.67;5.73;;;;;;;;;;4996548;28;20194;-70
2021/10/16 08:49:32;;;;;;;6.80;4.93;;;;;;;;;;4985725;28;20205;-70
2021/10/16 08:52:38;;;;;;;21.47;12.13;;;;;;;;;;4984771;28;20222;-70
2021/10/16 08:55:43;;;;;;;10.70;6.40;;;;;;;;;;4997417;28;20190;-70
2021/10/16 08:58:47;;;;;;;8.10;5.63;;;;;;;;;;4996895;28;20190;-70
2021/10/16 09:02:05;;;;;;;14.47;7.97;;;;;;;;;;4996189;28;20557;-70
2021/10/16 09:05:13;;;;;;;9.30;4.57;;;;;;;;;;4985026;28;20673;-70
2021/10/16 09:08:28;;;;;;;6.17;4.03;;;;;;;;;;4996412;28;20191;-70
2021/10/16 09:11:38;;;;;;;5.00;3.67;;;;;;;;;;4995554;28;20234;-71
2021/10/16 09:14:47;;;;;;;6.10;4.13;;;;;;;;;;4984814;28;20515;-70
2021/10/16 09:18:05;;;;;;;4.30;3.20;;;;;;;;;;4996232;28;20190;-71
2021/10/16 09:21:14;;;;;;;5.03;3.70;;;;;;;;;;4995505;28;20225;-71
2021/10/16 09:24:25;;;;;;;12.53;5.23;;;;;;;;;;4996105;28;20222;-70
2021/10/16 09:27:29;;;;;;;15.87;3.17;;;;;;;;;;4995591;28;20186;-71
2021/10/16 09:30:33;;;;;;;10.27;3.83;;;;;;;;;;4995909;28;20206;-70
2021/10/16 09:33:47;;;;;;;10.20;4.53;;;;;;;;;;4973005;28;20186;-70
2021/10/16 09:36:51;;;;;;;9.57;4.13;;;;;;;;;;4984107;28;20186;-70
2021/10/16 09:40:00;;;;;;;4.13;2.53;;;;;;;;;;4996337;28;20186;-70
2021/10/16 09:43:21;;;;;;;3.33;2.77;;;;;;;;;;4984280;28;20174;-70
2021/10/16 09:46:26;;;;;;;2.80;2.10;;;;;;;;;;4983988;28;20175;-70
2021/10/16 09:49:31;;;;;;;6.57;3.70;;;;;;;;;;4995963;28;20186;-70
2021/10/16 09:52:40;;;;;;;4.07;2.60;;;;;;;;;;4995475;28;20578;-70
2021/10/16 09:55:45;;;;;;;4.77;3.17;;;;;;;;;;4996062;28;20186;-70
2021/10/16 09:58:50;;;;;;;2.77;2.30;;;;;;;;;;4995490;28;20197;-70
2021/10/16 10:01:55;;;;;;;2.90;1.97;;;;;;;;;;4995397;28;20222;-70
2021/10/16 10:05:03;;;;;;;4.17;2.30;;;;;;;;;;4994020;28;20214;-71
2021/10/16 10:08:07;;;;;;;4.90;2.53;;;;;;;;;;4994508;28;20198;-71
2021/10/16 10:11:12;;;;;;;6.23;2.30;;;;;;;;;;4995007;28;20578;-71
2021/10/16 10:14:19;;;;;;;4.00;2.23;;;;;;;;;;4995893;28;20657;-70
2021/10/16 10:17:29;;;;;;;2.83;2.20;;;;;;;;;;4995093;28;20186;-70
2021/10/16 10:20:33;;;;;;;8.43;2.20;;;;;;;;;;4995228;28;20645;-71
2021/10/16 10:23:51;;;;;;;5.00;2.03;;;;;;;;;;4995322;28;20190;-71
2021/10/16 10:27:05;;;;;;;4.00;2.10;;;;;;;;;;4995181;28;20194;-71
2021/10/16 10:30:39;;;;;;;4.30;2.07;;;;;;;;;;4995392;28;20186;-71
2021/10/16 10:33:43;;;;;;;2.63;1.90;;;;;;;;;;4994274;28;20202;-71
2021/10/16 10:36:48;;;;;;;5.90;2.20;;;;;;;;;;4994609;28;20522;-71
2021/10/16 10:39:57;;;;;;;3.83;2.43;;;;;;;;;;4995738;28;20537;-71
2021/10/16 10:43:02;;;;;;;2.87;2.57;;;;;;;;;;4951993;29;20215;-74
2021/10/16 10:46:13;;;;;;;4.17;2.30;;;;;;;;;;4951391;29;20219;-74
2021/10/16 10:49:18;;;;;;;4.57;2.27;;;;;;;;;;4951991;29;20207;-74
2021/10/16 10:52:24;;;;;;;3.00;2.20;;;;;;;;;;4951186;28;20231;-74
2021/10/16 10:55:29;;;;;;;3.73;2.20;;;;;;;;;;4940209;29;20199;-74
2021/10/16 10:58:58;;;;;;;21.20;3.10;;;;;;;;;;4952309;29;20647;-74
2021/10/16 11:02:06;;;;;;;4.70;1.93;;;;;;;;;;4961968;28;20589;-74
2021/10/16 11:05:33;;;;;;;3.50;2.03;;;;;;;;;;4952117;29;20211;-74
2021/10/16 11:08:38;;;;;;;11.03;2.90;;;;;;;;;;4951990;29;20207;-74
2021/10/16 11:11:46;;;;;;;4.87;2.73;;;;;;;;;;4951537;28;20223;-74
2021/10/16 11:14:51;;;;;;;3.53;2.40;;;;;;;;;;4950423;29;20662;-73
2021/10/16 11:17:55;;;;;;;5.17;2.43;;;;;;;;;;4948451;29;20191;-74
2021/10/16 11:21:05;;;;;;;2.30;1.73;;;;;;;;;;4951876;28;20223;-74
2021/10/16 11:24:09;;;;;;;3.73;1.80;;;;;;;;;;4950991;28;20207;-74
2021/10/16 11:27:20;;;;;;;3.63;1.60;;;;;;;;;;4950706;29;20203;-75
2021/10/16 11:30:24;;;;;;;3.83;1.77;;;;;;;;;;4943771;28;20207;-74
2021/10/16 11:33:31;;;;;;;6.33;2.00;;;;;;;;;;4951646;29;20191;-74
2021/10/16 11:36:35;;;;;;;3.10;2.00;;;;;;;;;;4951030;29;20203;-74
2021/10/16 11:39:39;;;;;;;2.53;1.83;;;;;;;;;;4951529;29;20192;-75
2021/10/16 11:42:50;;;;;;;4.83;2.10;;;;;;;;;;4950844;29;20183;-74
2021/10/16 11:45:55;;;;;;;6.67;1.80;;;;;;;;;;4951604;29;20211;-74
2021/10/16 11:49:05;;;;;;;1.90;1.50;;;;;;;;;;4950633;29;20548;-74
2021/10/16 11:52:24;;;;;;;2.00;1.70;;;;;;;;;;4950283;28;20231;-74
2021/10/16 11:55:29;;;;;;;3.23;1.37;;;;;;;;;;4949151;29;20199;-75
2021/10/16 11:58:34;;;;;;;1.97;1.17;;;;;;;;;;4951382;29;20203;-75
2021/10/16 12:01:45;;;;;;;2.03;1.30;;;;;;;;;;4937877;29;20579;-75
2021/10/16 12:05:13;;;;;;;2.30;1.20;;;;;;;;;;4951399;29;20215;-74
2021/10/16 12:08:21;;;;;;;1.93;1.40;;;;;;;;;;4950748;29;20203;-75
2021/10/16 12:11:30;;;;;;;2.73;1.50;;;;;;;;;;4950825;28;20231;-74
2021/10/16 12:14:34;;;;;;;3.43;1.60;;;;;;;;;;4950960;29;20200;-74
2021/10/16 12:17:43;;;;;;;3.20;1.30;;;;;;;;;;4949345;29;20199;-75
2021/10/16 12:20:58;;;;;;;2.07;1.33;;;;;;;;;;4950060;28;20224;-75
2021/10/16 12:24:09;;;;;;;1.83;1.00;;;;;;;;;;4950034;29;20690;-74
2021/10/16 12:27:15;;;;;;;2.30;1.43;;;;;;;;;;4950732;29;20191;-74
2021/10/16 12:30:19;;;;;;;1.70;1.20;;;;;;;;;;4939386;28;20546;-75
2021/10/16 12:33:23;;;;;;;1.20;1.00;;;;;;;;;;4939364;29;20207;-74
2021/10/16 12:36:41;;;;;;;2.70;1.30;;;;;;;;;;4963434;28;20199;-74
2021/10/16 12:39:47;;;;;;;3.23;1.53;;;;;;;;;;4954609;29;20535;-74
2021/10/16 12:42:51;;;;;;;2.73;1.13;;;;;;;;;;4964952;28;20199;-74
2021/10/16 12:45:56;;;;;;;2.33;1.30;;;;;;;;;;4934007;29;20222;-74
2021/10/16 12:49:00;;;;;;;1.60;1.43;;;;;;;;;;4946239;29;20196;-74
2021/10/16 12:52:24;;;;;;;1.73;1.30;;;;;;;;;;4941773;29;20227;-74
2021/10/16 12:55:31;;;;;;;4.17;1.43;;;;;;;;;;4949146;29;20667;-74
2021/10/16 12:58:35;;;;;;;1.40;1.30;;;;;;;;;;4954810;29;20192;-74
2021/10/16 13:01:39;;;;;;;2.50;1.13;;;;;;;;;;4950535;29;20231;-75
2021/10/16 13:04:45;;;;;;;1.77;1.50;;;;;;;;;;4957934;29;20187;-75
2021/10/16 13:07:50;;;;;;;2.37;1.20;;;;;;;;;;4957111;29;20200;-78
2021/10/16 13:10:54;;;;;;;1.07;0.93;;;;;;;;;;4958012;28;20227;-76
2021/10/16 13:13:58;;;;;;;2.10;1.20;;;;;;;;;;4957673;29;20183;-76
2021/10/16 13:17:03;;;;;;;1.70;1.10;;;;;;;;;;4957235;29;20191;-76
2021/10/16 13:20:09;;;;;;;1.73;1.10;;;;;;;;;;4956684;29;20184;-76
2021/10/16 13:23:13;;;;;;;1.60;1.10;;;;;;;;;;4967888;28;20187;-76
2021/10/16 13:26:17;;;;;;;1.40;1.20;;;;;;;;;;4956833;29;20211;-76
2021/10/16 13:29:21;;;;;;;1.60;1.20;;;;;;;;;;4957548;29;20199;-76
2021/10/16 13:32:26;;;;;;;4.93;1.07;;;;;;;;;;4945276;29;20227;-76
2021/10/16 13:35:30;;;;;;;4.67;1.10;;;;;;;;;;4957169;29;20200;-76
2021/10/16 13:38:34;;;;;;;4.17;1.30;;;;;;;;;;4957254;29;20188;-76
2021/10/16 13:41:39;;;;;;;8.53;1.70;;;;;;;;;;4944995;29;20238;-76
2021/10/16 13:44:43;;;;;;;3.33;1.20;;;;;;;;;;4945282;29;20188;-76
2021/10/16 13:47:47;;;;;;;1.80;0.97;;;;;;;;;;4957049;28;20180;-76
2021/10/16 13:50:51;;;;;;;1.93;1.00;;;;;;;;;;4956924;28;20227;-76
2021/10/16 13:53:55;;;;;;;1.73;1.10;;;;;;;;;;4945076;29;20543;-76
2021/10/16 13:57:00;;;;;;;1.67;1.00;;;;;;;;;;4956818;29;20183;-76
2021/10/16 14:00:06;;;;;;;1.63;0.90;;;;;;;;;;4956226;29;20184;-76
2021/10/16 14:03:10;;;;;;;2.30;1.03;;;;;;;;;;4955864;29;20187;-76
2021/10/16 14:06:14;;;;;;;7.20;1.50;;;;;;;;;;4956864;29;20207;-76
2021/10/16 14:09:18;;;;;;;8.73;2.33;;;;;;;;;;4955693;29;20187;-76
2021/10/16 14:12:23;;;;;;;2.20;1.70;;;;;;;;;;4955860;29;20231;-76
2021/10/16 14:15:26;;;;;;;1.77;1.30;;;;;;;;;;4955783;29;20203;-76
2021/10/16 14:18:31;;;;;;;4.87;1.30;;;;;;;;;;4956432;29;20184;-76
2021/10/16 14:21:35;;;;;;;4.90;1.10;;;;;;;;;;4944731;29;20377;-76
2021/10/16 14:24:39;;;;;;;2.03;1.00;;;;;;;;;;4956300;29;20183;-76
2021/10/16 14:27:43;;;;;;;1.63;0.80;;;;;;;;;;4956839;29;20179;-76
2021/10/16 14:30:48;;;;;;;3.37;1.17;;;;;;;;;;4955502;28;20223;-75
2021/10/16 14:33:52;;;;;;;1.00;0.80;;;;;;;;;;4955610;29;20188;-76
2021/10/16 14:36:57;;;;;;;1.87;0.90;;;;;;;;;;4944511;29;20191;-76
2021/10/16 14:40:02;;;;;;;5.10;1.70;;;;;;;;;;4955915;29;20188;-77
2021/10/16 14:43:06;;;;;;;1.50;1.00;;;;;;;;;;4955424;29;20666;-77
2021/10/16 14:46:10;;;;;;;1.70;1.00;;;;;;;;;;4943878;29;20219;-76
2021/10/16 14:49:17;;;;;;;2.10;1.07;;;;;;;;;;4955000;29;20191;-77
2021/10/16 14:52:21;;;;;;;1.00;0.97;;;;;;;;;;4966327;28;20215;-77
2021/10/16 14:55:28;;;;;;;1.67;1.03;;;;;;;;;;4956295;29;20516;-77
2021/10/16 14:58:32;;;;;;;1.40;1.20;;;;;;;;;;4955200;28;20187;-76
2021/10/16 15:01:36;;;;;;;1.50;1.20;;;;;;;;;;4955726;28;20223;-77
2021/10/16 15:04:40;;;;;;;4.27;1.43;;;;;;;;;;4954786;29;20183;-77
2021/10/16 15:07:45;;;;;;;2.07;1.30;;;;;;;;;;4943985;29;20183;-77
2021/10/16 15:10:53;;;;;;;2.50;1.50;;;;;;;;;;4955654;28;20223;-77
2021/10/16 15:13:58;;;;;;;3.90;1.40;;;;;;;;;;4955216;29;20184;-77
2021/10/16 15:17:02;;;;;;;3.43;1.80;;;;;;;;;;4955668;29;20184;-77
2021/10/16 15:20:07;;;;;;;3.10;1.53;;;;;;;;;;4955353;29;20195;-77
2021/10/16 15:23:13;;;;;;;3.47;1.43;;;;;;;;;;4955276;29;20192;-77
2021/10/16 15:26:19;;;;;;;3.40;1.57;;;;;;;;;;4954407;29;20571;-77
2021/10/16 15:29:24;;;;;;;1.60;1.17;;;;;;;;;;4943832;29;20187;-77
2021/10/16 15:32:28;;;;;;;9.83;1.87;;;;;;;;;;4943284;29;20702;-77
2021/10/16 15:35:32;;;;;;;1.97;0.97;;;;;;;;;;4954696;29;20635;-77
2021/10/16 15:38:38;;;;;;;7.30;1.23;;;;;;;;;;4955015;29;20188;-78
2021/10/16 15:41:42;;;;;;;5.90;1.50;;;;;;;;;;4953755;28;20726;-77
2021/10/16 15:44:46;;;;;;;10.10;2.17;;;;;;;;;;4954508;29;20196;-77
2021/10/16 15:47:55;;;;;;;6.57;1.47;;;;;;;;;;4954826;29;20211;-78
2021/10/16 15:51:00;;;;;;;13.50;4.57;;;;;;;;;;4949631;28;20223;-78
2021/10/16 15:54:04;;;;;;;8.67;4.03;;;;;;;;;;4956863;28;20195;-78
2021/10/16 15:57:08;;;;;;;5.00;3.00;;;;;;;;;;4948336;29;20195;-78
2021/10/16 16:00:12;;;;;;;5.03;2.80;;;;;;;;;;4946610;29;20979;-78
2021/10/16 16:03:17;;;;;;;4.27;2.90;;;;;;;;;;4958091;29;20199;-78
2021/10/16 16:06:21;;;;;;;4.47;2.67;;;;;;;;;;4956477;29;20215;-79
2021/10/16 16:09:25;;;;;;;2.60;1.93;;;;;;;;;;4953847;28;20191;-78
2021/10/16 16:12:30;;;;;;;3.20;1.60;;;;;;;;;;4958373;28;20219;-79
2021/10/16 16:15:34;;;;;;;2.73;1.67;;;;;;;;;;4956180;29;20191;-79
2021/10/16 16:18:38;;;;;;;2.13;1.43;;;;;;;;;;4958813;28;20207;-79
2021/10/16 16:21:43;;;;;;;4.23;1.47;;;;;;;;;;4958912;28;20222;-78
2021/10/16 16:24:47;;;;;;;1.57;1.00;;;;;;;;;;4956539;29;20203;-80
2021/10/16 16:27:51;;;;;;;1.87;1.37;;;;;;;;;;4937154;29;20215;-79
2021/10/16 16:30:57;;;;;;;1.50;0.90;;;;;;;;;;4957769;28;20802;-79
2021/10/16 16:34:01;;;;;;;3.97;1.10;;;;;;;;;;4969227;28;20187;-79
2021/10/16 16:37:05;;;;;;;2.40;1.00;;;;;;;;;;4969537;28;20184;-79
2021/10/16 16:40:11;;;;;;;2.80;1.23;;;;;;;;;;4947753;29;20207;-80
2021/10/16 16:43:16;;;;;;;2.30;1.13;;;;;;;;;;4958155;29;20204;-78
2021/10/16 16:46:21;;;;;;;2.50;0.90;;;;;;;;;;4958722;29;20215;-80
2021/10/16 16:49:25;;;;;;;2.97;1.20;;;;;;;;;;4942338;29;20203;-75
2021/10/16 16:52:29;;;;;;;1.13;1.00;;;;;;;;;;4953238;29;20231;-76
2021/10/16 16:55:33;;;;;;;2.00;1.00;;;;;;;;;;4953140;29;20729;-75
2021/10/16 16:58:38;;;;;;;1.30;1.20;;;;;;;;;;4952960;29;20604;-75
2021/10/16 17:01:44;;;;;;;6.40;1.20;;;;;;;;;;4963714;28;20231;-76
2021/10/16 17:04:49;;;;;;;8.30;1.53;;;;;;;;;;4938373;29;20196;-76
2021/10/16 17:07:53;;;;;;;2.73;1.20;;;;;;;;;;4941690;29;20215;-76
2021/10/16 17:10:57;;;;;;;2.63;1.20;;;;;;;;;;4953763;28;20682;-77
2021/10/16 17:14:02;;;;;;;1.30;1.00;;;;;;;;;;4955099;29;20199;-77
2021/10/16 17:17:06;;;;;;;4.67;1.30;;;;;;;;;;4941944;29;20195;-77
2021/10/16 17:20:11;;;;;;;1.93;1.33;;;;;;;;;;4952888;29;20206;-77
2021/10/16 17:23:15;;;;;;;3.27;1.30;;;;;;;;;;4963643;28;20203;-77
2021/10/16 17:26:20;;;;;;;2.73;1.20;;;;;;;;;;4953556;29;20223;-77
2021/10/16 17:29:24;;;;;;;1.80;1.33;;;;;;;;;;4954154;29;20199;-77
2021/10/16 17:32:29;;;;;;;1.40;1.30;;;;;;;;;;4943141;29;20230;-77
2021/10/16 17:35:35;;;;;;;1.90;1.17;;;;;;;;;;4953253;29;20203;-77
2021/10/16 17:38:41;;;;;;;1.90;1.30;;;;;;;;;;4941402;29;20191;-77
2021/10/16 17:41:45;;;;;;;1.80;1.47;;;;;;;;;;4951773;29;20238;-77
2021/10/16 17:44:49;;;;;;;2.53;1.47;;;;;;;;;;4953041;29;20195;-77
2021/10/16 17:47:53;;;;;;;2.13;1.33;;;;;;;;;;4951399;29;20215;-77
2021/10/16 17:50:58;;;;;;;3.30;1.47;;;;;;;;;;4952108;28;20227;-77
2021/10/16 17:54:03;;;;;;;3.20;1.70;;;;;;;;;;4951600;29;20670;-77
2021/10/16 17:57:07;;;;;;;3.37;1.67;;;;;;;;;;4951918;29;20666;-77
2021/10/16 18:00:11;;;;;;;1.73;1.47;;;;;;;;;;4951659;29;20206;-77
2021/10/16 18:03:19;;;;;;;4.17;1.90;;;;;;;;;;4942146;29;20196;-77
2021/10/16 18:06:23;;;;;;;3.47;1.73;;;;;;;;;;4951785;29;20639;-77
2021/10/16 18:09:27;;;;;;;2.20;2.00;;;;;;;;;;4951590;29;20203;-78
2021/10/16 18:12:31;;;;;;;2.83;2.00;;;;;;;;;;4929817;29;20227;-77
2021/10/16 18:15:36;;;;;;;3.07;1.90;;;;;;;;;;4951805;29;20203;-77
2021/10/16 18:18:40;;;;;;;2.83;1.90;;;;;;;;;;4951669;29;20184;-78
2021/10/16 18:21:44;;;;;;;2.07;1.60;;;;;;;;;;4952134;28;20219;-77
2021/10/16 18:24:49;;;;;;;2.90;1.60;;;;;;;;;;4940721;29;20192;-77
2021/10/16 18:27:53;;;;;;;2.80;1.90;;;;;;;;;;4952428;29;20583;-78
2021/10/16 18:30:57;;;;;;;1.80;1.60;;;;;;;;;;4950173;28;20217;-77
2021/10/16 18:34:01;;;;;;;4.37;2.20;;;;;;;;;;4951548;28;20187;-77
2021/10/16 18:37:06;;;;;;;4.63;1.87;;;;;;;;;;4952015;29;20199;-78
2021/10/16 18:40:11;;;;;;;2.33;1.83;;;;;;;;;;4951723;29;20618;-77
2021/10/16 18:43:15;;;;;;;2.97;1.87;;;;;;;;;;4939794;29;20525;-78
2021/10/16 18:46:19;;;;;;;4.03;1.83;;;;;;;;;;4951841;29;20195;-78
2021/10/16 18:49:24;;;;;;;2.37;1.80;;;;;;;;;;4932168;29;20184;-78
2021/10/16 18:52:32;;;;;;;2.17;1.90;;;;;;;;;;4947890;29;20223;-78
2021/10/16 18:55:36;;;;;;;2.43;1.40;;;;;;;;;;4951223;29;20211;-78
2021/10/16 18:58:40;;;;;;;2.73;1.70;;;;;;;;;;4951952;29;20217;-77
2021/10/16 19:01:44;;;;;;;2.17;1.80;;;;;;;;;;4950354;28;20238;-77
2021/10/16 19:04:49;;;;;;;4.03;1.80;;;;;;;;;;4950437;29;20193;-77
2021/10/16 19:07:53;;;;;;;4.30;2.13;;;;;;;;;;4951107;29;20223;-77
2021/10/16 19:10:58;;;;;;;4.80;1.73;;;;;;;;;;4950891;28;20223;-77
2021/10/16 19:14:02;;;;;;;3.20;1.93;;;;;;;;;;4928849;29;20195;-77
2021/10/16 19:17:06;;;;;;;3.47;1.70;;;;;;;;;;4950981;29;20180;-78
2021/10/16 19:20:10;;;;;;;2.30;1.73;;;;;;;;;;4939693;29;20184;-77
2021/10/16 19:23:15;;;;;;;3.93;1.70;;;;;;;;;;4939585;29;20187;-77
2021/10/16 19:26:19;;;;;;;4.27;1.40;;;;;;;;;;4951145;29;20199;-78
2021/10/16 19:29:23;;;;;;;5.00;1.87;;;;;;;;;;4951332;29;20199;-78
2021/10/16 19:32:28;;;;;;;2.20;1.97;;;;;;;;;;4951219;28;20219;-78
2021/10/16 19:35:32;;;;;;;1.93;1.70;;;;;;;;;;4950045;29;20199;-78
2021/10/16 19:38:36;;;;;;;5.17;2.00;;;;;;;;;;4950176;29;20195;-77
2021/10/16 19:41:43;;;;;;;7.40;1.70;;;;;;;;;;4951221;29;20634;-78
2021/10/16 19:44:47;;;;;;;2.00;1.80;;;;;;;;;;4950591;28;20203;-78
2021/10/16 19:47:51;;;;;;;2.47;1.87;;;;;;;;;;4951121;29;20555;-78
2021/10/16 19:50:56;;;;;;;2.20;1.73;;;;;;;;;;4938918;28;20230;-77
2021/10/16 19:54:00;;;;;;;3.00;1.70;;;;;;;;;;4949749;29;20536;-77
2021/10/16 19:57:04;;;;;;;3.87;2.10;;;;;;;;;;4951215;29;20180;-77
2021/10/16 20:00:13;;;;;;;2.03;1.83;;;;;;;;;;4961209;28;20751;-77
2021/10/16 20:03:17;;;;;;;2.87;2.07;;;;;;;;;;4950359;29;20188;-77
2021/10/16 20:06:21;;;;;;;2.10;1.70;;;;;;;;;;4951026;29;20188;-77
2021/10/16 20:09:28;;;;;;;2.47;1.80;;;;;;;;;;4950251;29;20180;-77
2021/10/16 20:12:33;;;;;;;4.37;2.03;;;;;;;;;;4950175;28;20227;-77
2021/10/16 20:15:38;;;;;;;3.83;2.53;;;;;;;;;;4950289;29;20208;-77
2021/10/16 20:18:42;;;;;;;2.43;1.70;;;;;;;;;;4949858;29;20195;-77
2021/10/16 20:21:46;;;;;;;3.20;1.90;;;;;;;;;;4939044;29;20706;-77
2021/10/16 20:24:50;;;;;;;4.53;2.50;;;;;;;;;;4949960;29;20203;-77
2021/10/16 20:27:55;;;;;;;4.33;2.13;;;;;;;;;;4950117;29;20219;-77
2021/10/16 20:30:59;;;;;;;5.47;2.27;;;;;;;;;;4950570;28;20219;-77
2021/10/16 20:34:03;;;;;;;4.07;2.10;;;;;;;;;;4938938;29;20586;-77
2021/10/16 20:37:07;;;;;;;3.37;2.20;;;;;;;;;;4960746;28;20196;-77
2021/10/16 20:40:12;;;;;;;2.47;1.83;;;;;;;;;;4960861;28;20225;-77
2021/10/16 20:43:17;;;;;;;3.13;2.03;;;;;;;;;;4949549;29;20200;-78
2021/10/16 20:46:21;;;;;;;4.13;2.30;;;;;;;;;;4949902;29;20196;-77
2021/10/16 20:49:26;;;;;;;3.23;2.70;;;;;;;;;;4950420;29;20525;-78
2021/10/16 20:52:30;;;;;;;4.83;3.03;;;;;;;;;;4970616;22;20203;-73
2021/10/16 20:55:34;;;;;;;5.77;2.90;;;;;;;;;;4993434;28;20533;-73
2021/10/16 20:58:38;;;;;;;3.60;3.13;;;;;;;;;;4996693;28;20182;-72
2021/10/16 21:01:42;;;;;;;3.90;3.10;;;;;;;;;;4996401;28;20230;-72
2021/10/16 21:04:47;;;;;;;6.07;3.10;;;;;;;;;;4996835;28;20633;-72
2021/10/16 21:07:51;;;;;;;3.60;2.77;;;;;;;;;;4996387;28;20565;-72
2021/10/16 21:10:55;;;;;;;3.20;2.70;;;;;;;;;;4984450;28;20226;-72
2021/10/16 21:13:59;;;;;;;5.70;2.87;;;;;;;;;;4996748;28;20186;-72
2021/10/16 21:17:03;;;;;;;3.80;2.67;;;;;;;;;;4996302;28;20182;-73
2021/10/16 21:20:08;;;;;;;2.97;2.67;;;;;;;;;;4996598;28;20178;-72
2021/10/16 21:23:12;;;;;;;9.17;3.00;;;;;;;;;;4996424;28;20645;-72
2021/10/16 21:26:16;;;;;;;4.70;2.30;;;;;;;;;;4996502;28;20626;-72
2021/10/16 21:29:20;;;;;;;2.77;2.20;;;;;;;;;;4996072;28;20206;-72
2021/10/16 21:32:47;;;;;;;4.37;2.83;;;;;;;;;;4996130;28;20191;-72
2021/10/16 21:35:52;;;;;;;5.03;2.67;;;;;;;;;;4996237;28;20190;-73
2021/10/16 21:38:56;;;;;;;5.87;3.80;;;;;;;;;;4995995;28;20198;-72